aviador You're here:

LEJR Decoded Metar

JEREZ in SPAIN
Report Time2018-01-17 18:00:00
UTC Time2018-01-17 18:16:49
Flight Rules vfr VFR
Wind030° at 06 kt
W.Decomp.*RWY 02: 5.9 kt HW 1.2 kt RCW
W.Rank030° ranks 32
Current wind is below 030° avg. (7.0)
Visibility9999 m
Phenomena:N/A
Clouds:N/A
Expected CloudBase > 2,800 ft AGL from Temp-Dew spread
CeilingNone
Temp15°C (ISA 0)
Dew Point08°C (63% RH)
AAT12.4°C
QNH1021 hPa
Density Alt-3 ft
Elevation98 ft
Report Wrong Elevation
Raw Report
LEJR 171800Z 03006KT 350V060 CAVOK 15/08 Q1021=

Extra information for LEJR:More info

Metar Taf Metar & Taf Last 4 Metars F.Rules Stats Wind Profile Meteogram Temp Stats Airport Information Weather charts Add Link Nearby VenuesMetar ALERT Operation Metar Decoded Social comments